sensor_id;sensor_type;location;lat;lon;timestamp;temperature;humidity
12959;DHT22;6544;51.666;6.634;2023-01-29T00:00:03;0.60;1.00
12959;DHT22;6544;51.666;6.634;2023-01-29T00:02:34;0.60;1.00
12959;DHT22;6544;51.666;6.634;2023-01-29T00:05:01;0.70;1.00
12959;DHT22;6544;51.666;6.634;2023-01-29T00:07:28;0.70;1.00
12959;DHT22;6544;51.666;6.634;2023-01-29T00:09:57;0.70;1.00
12959;DHT22;6544;51.666;6.634;2023-01-29T00:12:24;0.50;1.00
12959;DHT22;6544;51.666;6.634;2023-01-29T00:14:51;0.60;1.00
12959;DHT22;6544;51.666;6.634;2023-01-29T00:17:18;0.60;1.00
12959;DHT22;6544;51.666;6.634;2023-01-29T00:19:45;0.60;1.00
12959;DHT22;6544;51.666;6.634;2023-01-29T00:22:12;0.60;1.00
12959;DHT22;6544;51.666;6.634;2023-01-29T00:24:38;0.60;1.00
12959;DHT22;6544;51.666;6.634;2023-01-29T00:27:07;0.60;1.00
12959;DHT22;6544;51.666;6.634;2023-01-29T00:29:34;0.50;1.00
12959;DHT22;6544;51.666;6.634;2023-01-29T00:32:00;0.50;1.00
12959;DHT22;6544;51.666;6.634;2023-01-29T00:34:27;0.50;1.00
12959;DHT22;6544;51.666;6.634;2023-01-29T00:36:54;0.50;1.00
12959;DHT22;6544;51.666;6.634;2023-01-29T00:39:33;0.40;1.00
12959;DHT22;6544;51.666;6.634;2023-01-29T00:42:04;0.40;1.00
12959;DHT22;6544;51.666;6.634;2023-01-29T00:44:49;0.50;1.00
12959;DHT22;6544;51.666;6.634;2023-01-29T00:47:25;0.50;1.00
12959;DHT22;6544;51.666;6.634;2023-01-29T00:50:03;0.50;1.00
12959;DHT22;6544;51.666;6.634;2023-01-29T00:52:30;0.50;1.00
12959;DHT22;6544;51.666;6.634;2023-01-29T00:54:58;0.50;1.00
12959;DHT22;6544;51.666;6.634;2023-01-29T00:57:28;0.50;1.00
12959;DHT22;6544;51.666;6.634;2023-01-29T00:59:57;0.50;1.00
12959;DHT22;6544;51.666;6.634;2023-01-29T01:02:24;0.50;1.00
12959;DHT22;6544;51.666;6.634;2023-01-29T01:05:10;0.50;1.00
12959;DHT22;6544;51.666;6.634;2023-01-29T01:07:38;0.40;1.00
12959;DHT22;6544;51.666;6.634;2023-01-29T01:10:07;0.40;1.00
12959;DHT22;6544;51.666;6.634;2023-01-29T01:12:47;0.30;1.00
12959;DHT22;6544;51.666;6.634;2023-01-29T01:15:17;0.30;1.00
12959;DHT22;6544;51.666;6.634;2023-01-29T01:17:44;0.30;1.00
12959;DHT22;6544;51.666;6.634;2023-01-29T01:20:12;0.20;1.00
12959;DHT22;6544;51.666;6.634;2023-01-29T01:22:39;0.20;1.00
12959;DHT22;6544;51.666;6.634;2023-01-29T01:25:06;0.20;1.00
12959;DHT22;6544;51.666;6.634;2023-01-29T01:27:33;0.10;1.00
12959;DHT22;6544;51.666;6.634;2023-01-29T01:30:07;0.10;1.00
12959;DHT22;6544;51.666;6.634;2023-01-29T01:32:36;0.10;1.00
12959;DHT22;6544;51.666;6.634;2023-01-29T01:35:04;0.10;1.00
12959;DHT22;6544;51.666;6.634;2023-01-29T01:37:31;0.00;1.00
12959;DHT22;6544;51.666;6.634;2023-01-29T01:39:58;0.00;17.40
12959;DHT22;6544;51.666;6.634;2023-01-29T01:42:27;0.10;16.30
12959;DHT22;6544;51.666;6.634;2023-01-29T01:44:59;0.10;17.10
12959;DHT22;6544;51.666;6.634;2023-01-29T01:47:37;0.10;1.30
12959;DHT22;6544;51.666;6.634;2023-01-29T01:50:10;0.20;11.90
12959;DHT22;6544;51.666;6.634;2023-01-29T01:52:42;0.20;1.00
12959;DHT22;6544;51.666;6.634;2023-01-29T01:55:13;0.20;1.00
12959;DHT22;6544;51.666;6.634;2023-01-29T01:57:42;0.10;1.00
12959;DHT22;6544;51.666;6.634;2023-01-29T02:00:12;0.10;1.00
12959;DHT22;6544;51.666;6.634;2023-01-29T02:02:44;0.00;5.50
12959;DHT22;6544;51.666;6.634;2023-01-29T02:05:29;0.00;18.00
12959;DHT22;6544;51.666;6.634;2023-01-29T02:08:16;0.00;22.20
12959;DHT22;6544;51.666;6.634;2023-01-29T02:11:04;0.00;48.30
12959;DHT22;6544;51.666;6.634;2023-01-29T02:13:31;0.00;34.10
12959;DHT22;6544;51.666;6.634;2023-01-29T02:15:58;0.00;50.30
12959;DHT22;6544;51.666;6.634;2023-01-29T02:18:26;-0.10;29.30
12959;DHT22;6544;51.666;6.634;2023-01-29T02:21:12;0.00;78.00
12959;DHT22;6544;51.666;6.634;2023-01-29T02:24:14;0.00;54.50
12959;DHT22;6544;51.666;6.634;2023-01-29T02:26:56;0.00;42.90
12959;DHT22;6544;51.666;6.634;2023-01-29T02:29:31;-0.10;59.10
12959;DHT22;6544;51.666;6.634;2023-01-29T02:32:11;0.00;91.50
12959;DHT22;6544;51.666;6.634;2023-01-29T02:34:46;0.00;95.30
12959;DHT22;6544;51.666;6.634;2023-01-29T02:37:36;0.00;92.60
12959;DHT22;6544;51.666;6.634;2023-01-29T02:40:11;0.00;99.90
12959;DHT22;6544;51.666;6.634;2023-01-29T02:42:44;0.00;87.50
12959;DHT22;6544;51.666;6.634;2023-01-29T02:45:18;0.10;73.80
12959;DHT22;6544;51.666;6.634;2023-01-29T02:47:48;0.10;48.80
12959;DHT22;6544;51.666;6.634;2023-01-29T02:50:24;0.00;16.70
12959;DHT22;6544;51.666;6.634;2023-01-29T02:52:58;0.00;59.40
12959;DHT22;6544;51.666;6.634;2023-01-29T02:55:33;0.10;74.80
12959;DHT22;6544;51.666;6.634;2023-01-29T02:58:06;0.10;47.20
12959;DHT22;6544;51.666;6.634;2023-01-29T03:00:41;0.10;62.40
12959;DHT22;6544;51.666;6.634;2023-01-29T03:03:12;0.10;20.60
12959;DHT22;6544;51.666;6.634;2023-01-29T03:05:49;0.20;30.80
12959;DHT22;6544;51.666;6.634;2023-01-29T03:08:23;0.20;42.60
12959;DHT22;6544;51.666;6.634;2023-01-29T03:14:16;0.30;7.30
12959;DHT22;6544;51.666;6.634;2023-01-29T03:16:49;0.20;1.00
12959;DHT22;6544;51.666;6.634;2023-01-29T03:19:20;0.30;7.60
12959;DHT22;6544;51.666;6.634;2023-01-29T03:21:51;0.20;7.50
12959;DHT22;6544;51.666;6.634;2023-01-29T03:24:29;0.20;41.10
12959;DHT22;6544;51.666;6.634;2023-01-29T03:27:15;0.20;50.70
12959;DHT22;6544;51.666;6.634;2023-01-29T03:30:00;0.20;12.50
12959;DHT22;6544;51.666;6.634;2023-01-29T03:32:48;0.20;20.50
12959;DHT22;6544;51.666;6.634;2023-01-29T03:35:18;0.20;34.90
12959;DHT22;6544;51.666;6.634;2023-01-29T03:38:02;0.20;37.70
12959;DHT22;6544;51.666;6.634;2023-01-29T03:40:35;0.30;29.80
12959;DHT22;6544;51.666;6.634;2023-01-29T03:43:10;0.20;57.00
12959;DHT22;6544;51.666;6.634;2023-01-29T03:45:46;0.30;43.50
12959;DHT22;6544;51.666;6.634;2023-01-29T03:48:23;0.20;21.30
12959;DHT22;6544;51.666;6.634;2023-01-29T03:51:00;0.20;27.60
12959;DHT22;6544;51.666;6.634;2023-01-29T03:53:34;0.20;46.20
12959;DHT22;6544;51.666;6.634;2023-01-29T03:56:07;0.20;59.00
12959;DHT22;6544;51.666;6.634;2023-01-29T03:58:41;0.20;62.90
12959;DHT22;6544;51.666;6.634;2023-01-29T04:01:13;0.10;74.30
12959;DHT22;6544;51.666;6.634;2023-01-29T04:03:47;0.10;84.10
12959;DHT22;6544;51.666;6.634;2023-01-29T04:06:18;0.10;99.90
12959;DHT22;6544;51.666;6.634;2023-01-29T04:08:51;0.10;99.90
12959;DHT22;6544;51.666;6.634;2023-01-29T04:11:22;0.00;99.90
12959;DHT22;6544;51.666;6.634;2023-01-29T04:13:50;0.00;99.90
12959;DHT22;6544;51.666;6.634;2023-01-29T04:16:21;0.00;99.90
12959;DHT22;6544;51.666;6.634;2023-01-29T04:18:51;0.00;99.90
12959;DHT22;6544;51.666;6.634;2023-01-29T04:21:19;0.00;99.90
12959;DHT22;6544;51.666;6.634;2023-01-29T04:23:46;-0.10;99.90
12959;DHT22;6544;51.666;6.634;2023-01-29T04:26:38;0.00;99.90
12959;DHT22;6544;51.666;6.634;2023-01-29T04:29:19;0.00;99.90
12959;DHT22;6544;51.666;6.634;2023-01-29T04:31:54;0.00;99.90
12959;DHT22;6544;51.666;6.634;2023-01-29T04:34:28;0.10;99.90
12959;DHT22;6544;51.666;6.634;2023-01-29T04:37:07;0.10;99.90
12959;DHT22;6544;51.666;6.634;2023-01-29T04:39:43;0.10;99.90
12959;DHT22;6544;51.666;6.634;2023-01-29T04:42:18;0.10;99.90
12959;DHT22;6544;51.666;6.634;2023-01-29T04:44:50;0.20;99.90
12959;DHT22;6544;51.666;6.634;2023-01-29T04:47:23;0.20;99.90
12959;DHT22;6544;51.666;6.634;2023-01-29T04:50:02;0.10;99.90
12959;DHT22;6544;51.666;6.634;2023-01-29T04:52:41;0.10;99.90
12959;DHT22;6544;51.666;6.634;2023-01-29T04:55:18;0.10;99.90
12959;DHT22;6544;51.666;6.634;2023-01-29T04:57:51;0.10;99.90
12959;DHT22;6544;51.666;6.634;2023-01-29T05:00:22;0.10;99.90
12959;DHT22;6544;51.666;6.634;2023-01-29T05:02:51;0.00;99.90
12959;DHT22;6544;51.666;6.634;2023-01-29T05:05:20;0.00;99.90
12959;DHT22;6544;51.666;6.634;2023-01-29T05:07:47;0.00;99.90
12959;DHT22;6544;51.666;6.634;2023-01-29T05:10:17;0.00;99.90
12959;DHT22;6544;51.666;6.634;2023-01-29T05:12:48;0.00;99.90
12959;DHT22;6544;51.666;6.634;2023-01-29T05:15:19;0.10;99.90
12959;DHT22;6544;51.666;6.634;2023-01-29T05:17:48;0.10;99.90
12959;DHT22;6544;51.666;6.634;2023-01-29T05:20:15;0.00;99.90
12959;DHT22;6544;51.666;6.634;2023-01-29T05:22:43;0.00;99.90
12959;DHT22;6544;51.666;6.634;2023-01-29T05:25:20;0.00;99.90
12959;DHT22;6544;51.666;6.634;2023-01-29T05:27:49;0.00;99.90
12959;DHT22;6544;51.666;6.634;2023-01-29T05:30:35;0.10;99.90
12959;DHT22;6544;51.666;6.634;2023-01-29T05:33:04;0.20;99.90
12959;DHT22;6544;51.666;6.634;2023-01-29T05:35:31;0.30;99.90
12959;DHT22;6544;51.666;6.634;2023-01-29T05:37:59;0.30;99.90
12959;DHT22;6544;51.666;6.634;2023-01-29T05:40:26;0.30;99.90
12959;DHT22;6544;51.666;6.634;2023-01-29T05:42:53;0.30;99.90
12959;DHT22;6544;51.666;6.634;2023-01-29T05:45:20;0.30;99.90
12959;DHT22;6544;51.666;6.634;2023-01-29T05:47:47;0.30;99.90
12959;DHT22;6544;51.666;6.634;2023-01-29T05:50:14;0.30;99.90
12959;DHT22;6544;51.666;6.634;2023-01-29T05:52:42;0.30;99.90
12959;DHT22;6544;51.666;6.634;2023-01-29T05:55:10;0.30;99.90
12959;DHT22;6544;51.666;6.634;2023-01-29T05:57:38;0.30;99.90
12959;DHT22;6544;51.666;6.634;2023-01-29T06:00:08;0.30;99.90
12959;DHT22;6544;51.666;6.634;2023-01-29T06:02:35;0.30;99.90
12959;DHT22;6544;51.666;6.634;2023-01-29T06:05:02;0.40;99.90
12959;DHT22;6544;51.666;6.634;2023-01-29T06:07:28;0.40;99.90
12959;DHT22;6544;51.666;6.634;2023-01-29T06:09:55;0.50;99.90
12959;DHT22;6544;51.666;6.634;2023-01-29T06:12:25;0.50;99.90
12959;DHT22;6544;51.666;6.634;2023-01-29T06:14:52;0.60;99.90
12959;DHT22;6544;51.666;6.634;2023-01-29T06:17:18;0.60;99.90
12959;DHT22;6544;51.666;6.634;2023-01-29T06:19:45;0.60;99.90
12959;DHT22;6544;51.666;6.634;2023-01-29T06:22:12;0.60;99.90
12959;DHT22;6544;51.666;6.634;2023-01-29T06:24:39;0.60;99.90
12959;DHT22;6544;51.666;6.634;2023-01-29T06:27:06;0.60;99.90
12959;DHT22;6544;51.666;6.634;2023-01-29T06:29:34;0.70;99.90
12959;DHT22;6544;51.666;6.634;2023-01-29T06:32:01;0.60;99.90
12959;DHT22;6544;51.666;6.634;2023-01-29T06:34:28;0.60;99.90
12959;DHT22;6544;51.666;6.634;2023-01-29T06:36:55;0.60;99.90
12959;DHT22;6544;51.666;6.634;2023-01-29T06:39:21;0.50;99.90
12959;DHT22;6544;51.666;6.634;2023-01-29T06:41:48;0.50;99.90
12959;DHT22;6544;51.666;6.634;2023-01-29T06:44:15;0.60;99.90
12959;DHT22;6544;51.666;6.634;2023-01-29T06:46:43;0.60;99.90
12959;DHT22;6544;51.666;6.634;2023-01-29T06:49:10;0.60;99.90
12959;DHT22;6544;51.666;6.634;2023-01-29T06:51:37;0.60;99.90
12959;DHT22;6544;51.666;6.634;2023-01-29T06:54:04;0.70;99.90
12959;DHT22;6544;51.666;6.634;2023-01-29T06:56:33;0.60;99.90
12959;DHT22;6544;51.666;6.634;2023-01-29T06:59:00;0.60;99.90
12959;DHT22;6544;51.666;6.634;2023-01-29T07:01:27;0.50;99.90
12959;DHT22;6544;51.666;6.634;2023-01-29T07:03:55;0.50;99.90
12959;DHT22;6544;51.666;6.634;2023-01-29T07:06:26;0.60;99.90
12959;DHT22;6544;51.666;6.634;2023-01-29T07:08:54;0.60;99.90
12959;DHT22;6544;51.666;6.634;2023-01-29T07:11:21;0.60;99.90
12959;DHT22;6544;51.666;6.634;2023-01-29T07:13:48;0.60;99.90
12959;DHT22;6544;51.666;6.634;2023-01-29T07:16:15;0.60;99.90
12959;DHT22;6544;51.666;6.634;2023-01-29T07:18:42;0.60;99.90
12959;DHT22;6544;51.666;6.634;2023-01-29T07:21:10;0.50;99.90
12959;DHT22;6544;51.666;6.634;2023-01-29T07:23:37;0.50;99.90
12959;DHT22;6544;51.666;6.634;2023-01-29T07:26:05;0.50;99.90
12959;DHT22;6544;51.666;6.634;2023-01-29T07:28:35;0.40;99.90
12959;DHT22;6544;51.666;6.634;2023-01-29T07:31:02;0.50;99.90
12959;DHT22;6544;51.666;6.634;2023-01-29T07:33:29;0.40;99.90
12959;DHT22;6544;51.666;6.634;2023-01-29T07:35:56;0.50;99.90
12959;DHT22;6544;51.666;6.634;2023-01-29T07:38:24;0.40;99.90
12959;DHT22;6544;51.666;6.634;2023-01-29T07:40:51;0.40;99.90
12959;DHT22;6544;51.666;6.634;2023-01-29T07:43:18;0.40;99.90
12959;DHT22;6544;51.666;6.634;2023-01-29T07:45:45;0.40;99.90
12959;DHT22;6544;51.666;6.634;2023-01-29T07:48:12;0.40;99.90
12959;DHT22;6544;51.666;6.634;2023-01-29T07:50:40;0.40;99.90
12959;DHT22;6544;51.666;6.634;2023-01-29T07:53:11;0.50;99.90
12959;DHT22;6544;51.666;6.634;2023-01-29T07:55:42;0.50;99.90
12959;DHT22;6544;51.666;6.634;2023-01-29T07:58:10;0.50;99.90
12959;DHT22;6544;51.666;6.634;2023-01-29T08:00:37;0.50;99.90
12959;DHT22;6544;51.666;6.634;2023-01-29T08:03:05;0.50;99.90
12959;DHT22;6544;51.666;6.634;2023-01-29T08:05:32;0.50;99.90
12959;DHT22;6544;51.666;6.634;2023-01-29T08:07:59;0.50;99.90
12959;DHT22;6544;51.666;6.634;2023-01-29T08:10:27;0.40;99.90
12959;DHT22;6544;51.666;6.634;2023-01-29T08:12:56;0.40;99.90
12959;DHT22;6544;51.666;6.634;2023-01-29T08:15:23;0.40;99.90
12959;DHT22;6544;51.666;6.634;2023-01-29T08:17:51;0.40;99.90
12959;DHT22;6544;51.666;6.634;2023-01-29T08:20:19;0.40;99.90
12959;DHT22;6544;51.666;6.634;2023-01-29T08:22:46;0.40;1.00
12959;DHT22;6544;51.666;6.634;2023-01-29T08:25:13;0.30;1.00
12959;DHT22;6544;51.666;6.634;2023-01-29T08:27:41;0.40;1.00
12959;DHT22;6544;51.666;6.634;2023-01-29T08:30:10;0.30;1.00
12959;DHT22;6544;51.666;6.634;2023-01-29T08:32:37;0.30;1.00
12959;DHT22;6544;51.666;6.634;2023-01-29T08:35:05;0.30;1.00
12959;DHT22;6544;51.666;6.634;2023-01-29T08:37:32;0.40;1.00
12959;DHT22;6544;51.666;6.634;2023-01-29T08:39:59;0.40;1.00
12959;DHT22;6544;51.666;6.634;2023-01-29T08:42:25;0.50;1.00
12959;DHT22;6544;51.666;6.634;2023-01-29T08:44:52;0.50;1.00
12959;DHT22;6544;51.666;6.634;2023-01-29T08:47:21;0.50;1.00
12959;DHT22;6544;51.666;6.634;2023-01-29T08:49:47;0.50;99.90
12959;DHT22;6544;51.666;6.634;2023-01-29T08:52:14;0.50;1.00
12959;DHT22;6544;51.666;6.634;2023-01-29T08:54:44;0.50;1.00
12959;DHT22;6544;51.666;6.634;2023-01-29T09:00:10;0.60;1.00
12959;DHT22;6544;51.666;6.634;2023-01-29T09:02:46;0.60;1.00
12959;DHT22;6544;51.666;6.634;2023-01-29T09:05:13;0.50;1.00
12959;DHT22;6544;51.666;6.634;2023-01-29T09:07:40;0.50;1.00
12959;DHT22;6544;51.666;6.634;2023-01-29T09:10:08;0.50;1.00
12959;DHT22;6544;51.666;6.634;2023-01-29T09:12:36;0.50;1.00
12959;DHT22;6544;51.666;6.634;2023-01-29T09:15:03;0.50;1.00
12959;DHT22;6544;51.666;6.634;2023-01-29T09:17:30;0.50;1.00
12959;DHT22;6544;51.666;6.634;2023-01-29T09:19:58;0.50;1.00
12959;DHT22;6544;51.666;6.634;2023-01-29T09:22:25;0.40;1.00
12959;DHT22;6544;51.666;6.634;2023-01-29T09:24:52;0.40;1.00
12959;DHT22;6544;51.666;6.634;2023-01-29T09:27:19;0.40;1.00
12959;DHT22;6544;51.666;6.634;2023-01-29T09:29:46;0.50;1.00
12959;DHT22;6544;51.666;6.634;2023-01-29T09:32:13;0.50;1.00
12959;DHT22;6544;51.666;6.634;2023-01-29T09:34:40;0.50;1.00
12959;DHT22;6544;51.666;6.634;2023-01-29T09:37:08;0.60;1.00
12959;DHT22;6544;51.666;6.634;2023-01-29T09:39:35;0.60;1.00
12959;DHT22;6544;51.666;6.634;2023-01-29T09:42:07;0.70;1.00
12959;DHT22;6544;51.666;6.634;2023-01-29T09:44:48;0.70;1.00
12959;DHT22;6544;51.666;6.634;2023-01-29T09:47:23;0.80;1.00
12959;DHT22;6544;51.666;6.634;2023-01-29T09:49:54;0.80;1.00
12959;DHT22;6544;51.666;6.634;2023-01-29T09:52:26;0.80;1.00
12959;DHT22;6544;51.666;6.634;2023-01-29T09:54:58;0.80;1.00
12959;DHT22;6544;51.666;6.634;2023-01-29T09:57:32;0.80;1.00
12959;DHT22;6544;51.666;6.634;2023-01-29T10:00:00;0.80;1.00
12959;DHT22;6544;51.666;6.634;2023-01-29T10:02:44;0.80;1.00
12959;DHT22;6544;51.666;6.634;2023-01-29T10:05:28;0.80;1.00
12959;DHT22;6544;51.666;6.634;2023-01-29T10:11:25;0.90;1.00
12959;DHT22;6544;51.666;6.634;2023-01-29T10:14:06;0.90;1.00
12959;DHT22;6544;51.666;6.634;2023-01-29T10:16:45;0.90;1.00
12959;DHT22;6544;51.666;6.634;2023-01-29T10:19:47;0.80;1.00
12959;DHT22;6544;51.666;6.634;2023-01-29T10:22:44;0.90;1.00
12959;DHT22;6544;51.666;6.634;2023-01-29T10:25:15;0.90;1.00
12959;DHT22;6544;51.666;6.634;2023-01-29T10:27:48;0.90;1.00
12959;DHT22;6544;51.666;6.634;2023-01-29T10:30:22;1.00;1.00
12959;DHT22;6544;51.666;6.634;2023-01-29T10:32:53;1.00;1.00
12959;DHT22;6544;51.666;6.634;2023-01-29T10:35:22;1.00;1.00
12959;DHT22;6544;51.666;6.634;2023-01-29T10:37:52;1.00;1.00
12959;DHT22;6544;51.666;6.634;2023-01-29T10:40:20;1.00;1.00
12959;DHT22;6544;51.666;6.634;2023-01-29T10:42:54;1.00;1.00
12959;DHT22;6544;51.666;6.634;2023-01-29T10:45:28;1.00;1.00
12959;DHT22;6544;51.666;6.634;2023-01-29T10:50:53;1.10;1.00
12959;DHT22;6544;51.666;6.634;2023-01-29T10:53:32;1.10;1.00
12959;DHT22;6544;51.666;6.634;2023-01-29T10:56:14;1.20;1.00
12959;DHT22;6544;51.666;6.634;2023-01-29T10:58:49;1.30;1.00
12959;DHT22;6544;51.666;6.634;2023-01-29T11:01:17;1.30;99.90
12959;DHT22;6544;51.666;6.634;2023-01-29T11:03:44;1.30;99.90
12959;DHT22;6544;51.666;6.634;2023-01-29T11:06:15;1.20;99.90
12959;DHT22;6544;51.666;6.634;2023-01-29T11:08:50;1.20;99.90
12959;DHT22;6544;51.666;6.634;2023-01-29T11:11:19;1.30;99.90
12959;DHT22;6544;51.666;6.634;2023-01-29T11:13:53;1.30;99.90
12959;DHT22;6544;51.666;6.634;2023-01-29T11:16:22;1.20;99.90
12959;DHT22;6544;51.666;6.634;2023-01-29T11:18:54;1.20;99.90
12959;DHT22;6544;51.666;6.634;2023-01-29T11:21:22;1.20;1.00
12959;DHT22;6544;51.666;6.634;2023-01-29T11:23:49;1.20;99.90
12959;DHT22;6544;51.666;6.634;2023-01-29T11:26:18;1.30;99.90
12959;DHT22;6544;51.666;6.634;2023-01-29T11:28:49;1.30;99.90
12959;DHT22;6544;51.666;6.634;2023-01-29T11:31:20;1.30;99.90
12959;DHT22;6544;51.666;6.634;2023-01-29T11:33:48;1.30;99.90
12959;DHT22;6544;51.666;6.634;2023-01-29T11:36:28;1.30;99.90
12959;DHT22;6544;51.666;6.634;2023-01-29T11:39:18;1.30;1.00
12959;DHT22;6544;51.666;6.634;2023-01-29T11:41:52;1.30;99.90
12959;DHT22;6544;51.666;6.634;2023-01-29T11:44:26;1.30;1.00
12959;DHT22;6544;51.666;6.634;2023-01-29T11:46:54;1.40;1.00
12959;DHT22;6544;51.666;6.634;2023-01-29T11:49:29;1.40;1.00
12959;DHT22;6544;51.666;6.634;2023-01-29T11:51:58;1.50;99.90
12959;DHT22;6544;51.666;6.634;2023-01-29T11:54:30;1.50;99.90
12959;DHT22;6544;51.666;6.634;2023-01-29T11:56:58;1.50;99.90
12959;DHT22;6544;51.666;6.634;2023-01-29T11:59:36;1.50;99.90
12959;DHT22;6544;51.666;6.634;2023-01-29T12:02:19;1.50;99.90
12959;DHT22;6544;51.666;6.634;2023-01-29T12:04:47;1.50;99.90
12959;DHT22;6544;51.666;6.634;2023-01-29T12:07:15;1.50;99.90
12959;DHT22;6544;51.666;6.634;2023-01-29T12:09:49;1.60;99.90
12959;DHT22;6544;51.666;6.634;2023-01-29T12:12:27;1.70;99.90
12959;DHT22;6544;51.666;6.634;2023-01-29T12:15:16;1.70;99.90
12959;DHT22;6544;51.666;6.634;2023-01-29T12:17:49;1.70;99.90
12959;DHT22;6544;51.666;6.634;2023-01-29T12:20:22;1.70;99.90
12959;DHT22;6544;51.666;6.634;2023-01-29T12:23:03;1.80;99.90
12959;DHT22;6544;51.666;6.634;2023-01-29T12:25:40;1.80;99.90
12959;DHT22;6544;51.666;6.634;2023-01-29T12:31:54;1.90;99.90
12959;DHT22;6544;51.666;6.634;2023-01-29T12:34:32;1.90;99.90
12959;DHT22;6544;51.666;6.634;2023-01-29T12:40:41;2.00;99.90
12959;DHT22;6544;51.666;6.634;2023-01-29T12:46:46;2.10;99.90
12959;DHT22;6544;51.666;6.634;2023-01-29T12:49:21;2.10;99.90
12959;DHT22;6544;51.666;6.634;2023-01-29T12:52:22;2.10;99.90
12959;DHT22;6544;51.666;6.634;2023-01-29T12:54:52;2.00;99.90
12959;DHT22;6544;51.666;6.634;2023-01-29T12:57:24;2.00;99.90
12959;DHT22;6544;51.666;6.634;2023-01-29T13:00:00;2.10;99.90
12959;DHT22;6544;51.666;6.634;2023-01-29T13:02:32;2.10;99.90
12959;DHT22;6544;51.666;6.634;2023-01-29T13:05:06;2.20;99.90
12959;DHT22;6544;51.666;6.634;2023-01-29T13:07:42;2.20;99.90
12959;DHT22;6544;51.666;6.634;2023-01-29T13:10:17;2.20;99.90
12959;DHT22;6544;51.666;6.634;2023-01-29T13:12:50;2.20;99.90
12959;DHT22;6544;51.666;6.634;2023-01-29T13:15:23;2.20;99.90
12959;DHT22;6544;51.666;6.634;2023-01-29T13:17:55;2.20;99.90
12959;DHT22;6544;51.666;6.634;2023-01-29T13:20:27;2.30;99.90
12959;DHT22;6544;51.666;6.634;2023-01-29T13:22:57;2.30;99.90
12959;DHT22;6544;51.666;6.634;2023-01-29T13:25:26;2.40;99.90
12959;DHT22;6544;51.666;6.634;2023-01-29T13:27:53;2.40;99.90
12959;DHT22;6544;51.666;6.634;2023-01-29T13:30:28;2.30;99.90
12959;DHT22;6544;51.666;6.634;2023-01-29T13:32:57;2.30;99.90
12959;DHT22;6544;51.666;6.634;2023-01-29T13:35:36;2.30;99.90
12959;DHT22;6544;51.666;6.634;2023-01-29T13:38:05;2.30;99.90
12959;DHT22;6544;51.666;6.634;2023-01-29T13:40:47;2.30;99.90
12959;DHT22;6544;51.666;6.634;2023-01-29T13:43:19;2.40;99.90
12959;DHT22;6544;51.666;6.634;2023-01-29T13:45:48;2.40;99.90
12959;DHT22;6544;51.666;6.634;2023-01-29T13:48:22;2.50;99.90
12959;DHT22;6544;51.666;6.634;2023-01-29T13:50:52;2.50;99.90
12959;DHT22;6544;51.666;6.634;2023-01-29T13:53:23;2.50;99.90
12959;DHT22;6544;51.666;6.634;2023-01-29T13:55:50;2.50;99.90
12959;DHT22;6544;51.666;6.634;2023-01-29T13:58:53;2.50;99.90
12959;DHT22;6544;51.666;6.634;2023-01-29T14:04:22;2.50;99.90
12959;DHT22;6544;51.666;6.634;2023-01-29T14:06:52;2.60;99.90
12959;DHT22;6544;51.666;6.634;2023-01-29T14:12:49;2.50;99.90
12959;DHT22;6544;51.666;6.634;2023-01-29T14:15:28;2.50;99.90
12959;DHT22;6544;51.666;6.634;2023-01-29T14:18:13;2.50;99.90
12959;DHT22;6544;51.666;6.634;2023-01-29T14:20:54;2.40;99.90
12959;DHT22;6544;51.666;6.634;2023-01-29T14:23:34;2.50;99.90
12959;DHT22;6544;51.666;6.634;2023-01-29T14:26:04;2.40;99.90
12959;DHT22;6544;51.666;6.634;2023-01-29T14:28:33;2.50;99.90
12959;DHT22;6544;51.666;6.634;2023-01-29T14:31:02;2.50;99.90
12959;DHT22;6544;51.666;6.634;2023-01-29T14:33:35;2.50;99.90
12959;DHT22;6544;51.666;6.634;2023-01-29T14:36:05;2.40;99.90
12959;DHT22;6544;51.666;6.634;2023-01-29T14:38:35;2.50;99.90
12959;DHT22;6544;51.666;6.634;2023-01-29T14:41:06;2.50;99.90
12959;DHT22;6544;51.666;6.634;2023-01-29T14:43:34;2.50;99.90
12959;DHT22;6544;51.666;6.634;2023-01-29T14:49:07;2.70;99.90
12959;DHT22;6544;51.666;6.634;2023-01-29T14:51:36;2.60;97.80
12959;DHT22;6544;51.666;6.634;2023-01-29T14:54:15;2.70;80.80
12959;DHT22;6544;51.666;6.634;2023-01-29T14:56:48;2.70;88.90
12959;DHT22;6544;51.666;6.634;2023-01-29T14:59:19;2.70;68.70
12959;DHT22;6544;51.666;6.634;2023-01-29T15:01:50;2.70;99.90
12959;DHT22;6544;51.666;6.634;2023-01-29T15:04:20;2.70;65.00
12959;DHT22;6544;51.666;6.634;2023-01-29T15:06:53;2.70;59.70
12959;DHT22;6544;51.666;6.634;2023-01-29T15:09:30;2.70;37.90
12959;DHT22;6544;51.666;6.634;2023-01-29T15:12:02;2.70;52.30
12959;DHT22;6544;51.666;6.634;2023-01-29T15:14:34;2.70;72.90
12959;DHT22;6544;51.666;6.634;2023-01-29T15:17:16;2.70;69.80
12959;DHT22;6544;51.666;6.634;2023-01-29T15:19:45;2.70;77.50
12959;DHT22;6544;51.666;6.634;2023-01-29T15:22:14;2.70;62.10
12959;DHT22;6544;51.666;6.634;2023-01-29T15:24:44;2.80;20.20
12959;DHT22;6544;51.666;6.634;2023-01-29T15:27:16;2.80;17.70
12959;DHT22;6544;51.666;6.634;2023-01-29T15:29:47;2.70;22.10
12959;DHT22;6544;51.666;6.634;2023-01-29T15:32:21;2.70;18.60
12959;DHT22;6544;51.666;6.634;2023-01-29T15:34:56;2.70;32.70
12959;DHT22;6544;51.666;6.634;2023-01-29T15:37:27;2.70;44.30
12959;DHT22;6544;51.666;6.634;2023-01-29T15:39:56;2.80;32.00
12959;DHT22;6544;51.666;6.634;2023-01-29T15:42:24;2.70;26.80
12959;DHT22;6544;51.666;6.634;2023-01-29T15:44:52;2.70;25.90
12959;DHT22;6544;51.666;6.634;2023-01-29T15:47:22;2.70;37.30
12959;DHT22;6544;51.666;6.634;2023-01-29T15:49:51;2.70;47.10
12959;DHT22;6544;51.666;6.634;2023-01-29T15:52:21;2.70;43.00
12959;DHT22;6544;51.666;6.634;2023-01-29T15:54:49;2.70;53.20
12959;DHT22;6544;51.666;6.634;2023-01-29T15:57:23;2.70;76.60
12959;DHT22;6544;51.666;6.634;2023-01-29T15:59:52;2.80;73.60
12959;DHT22;6544;51.666;6.634;2023-01-29T16:02:38;2.80;48.90
12959;DHT22;6544;51.666;6.634;2023-01-29T16:05:10;2.80;47.00
12959;DHT22;6544;51.666;6.634;2023-01-29T16:07:38;2.80;60.40
12959;DHT22;6544;51.666;6.634;2023-01-29T16:10:10;2.80;57.10
12959;DHT22;6544;51.666;6.634;2023-01-29T16:12:41;2.80;72.10
12959;DHT22;6544;51.666;6.634;2023-01-29T16:15:16;2.80;66.30
12959;DHT22;6544;51.666;6.634;2023-01-29T16:17:44;2.70;90.30
12959;DHT22;6544;51.666;6.634;2023-01-29T16:20:27;2.70;89.30
12959;DHT22;6544;51.666;6.634;2023-01-29T16:22:56;2.70;97.40
12959;DHT22;6544;51.666;6.634;2023-01-29T16:25:23;2.70;99.40
12959;DHT22;6544;51.666;6.634;2023-01-29T16:27:52;2.70;99.90
12959;DHT22;6544;51.666;6.634;2023-01-29T16:30:19;2.70;99.90
12959;DHT22;6544;51.666;6.634;2023-01-29T16:32:50;2.70;99.90
12959;DHT22;6544;51.666;6.634;2023-01-29T16:35:17;2.70;99.90
12959;DHT22;6544;51.666;6.634;2023-01-29T16:37:46;2.70;99.90
12959;DHT22;6544;51.666;6.634;2023-01-29T16:40:23;2.70;99.90
12959;DHT22;6544;51.666;6.634;2023-01-29T16:43:05;2.70;99.90
12959;DHT22;6544;51.666;6.634;2023-01-29T16:46:01;2.70;99.90
12959;DHT22;6544;51.666;6.634;2023-01-29T16:48:31;2.70;99.90
12959;DHT22;6544;51.666;6.634;2023-01-29T16:51:10;2.70;99.90
12959;DHT22;6544;51.666;6.634;2023-01-29T16:53:38;2.80;99.90
12959;DHT22;6544;51.666;6.634;2023-01-29T16:56:07;2.80;99.90
12959;DHT22;6544;51.666;6.634;2023-01-29T16:58:35;2.70;99.90
12959;DHT22;6544;51.666;6.634;2023-01-29T17:01:07;2.70;99.90
12959;DHT22;6544;51.666;6.634;2023-01-29T17:03:36;2.80;99.90
12959;DHT22;6544;51.666;6.634;2023-01-29T17:06:08;2.70;99.90
12959;DHT22;6544;51.666;6.634;2023-01-29T17:08:35;2.80;99.90